createdAt,value
2018-08-23T00:00:45.498Z,18.10
2018-08-23T00:03:19.352Z,18.10
2018-08-23T00:05:51.520Z,18.10
2018-08-23T00:08:20.276Z,18.00
2018-08-23T00:10:49.467Z,18.00
2018-08-23T00:13:18.050Z,18.00
2018-08-23T00:15:46.591Z,17.90
2018-08-23T00:18:15.022Z,17.90
2018-08-23T00:20:43.475Z,17.80
2018-08-23T00:23:12.017Z,17.80
2018-08-23T00:25:40.468Z,17.70
2018-08-23T00:28:09.371Z,17.70
2018-08-23T00:30:38.060Z,17.60
2018-08-23T00:33:06.759Z,17.60
2018-08-23T00:35:36.458Z,17.50
2018-08-23T00:38:05.784Z,17.50
2018-08-23T00:40:37.799Z,17.40
2018-08-23T00:43:07.490Z,17.40
2018-08-23T00:45:35.978Z,17.40
2018-08-23T00:48:04.537Z,17.40
2018-08-23T00:50:48.505Z,17.30
2018-08-23T00:53:17.026Z,17.30
2018-08-23T00:55:45.495Z,17.30
2018-08-23T00:58:13.910Z,17.20
2018-08-23T01:00:48.361Z,17.20
2018-08-23T01:03:17.138Z,17.20
2018-08-23T01:05:45.849Z,17.20
2018-08-23T01:08:18.852Z,17.20
2018-08-23T01:10:47.310Z,17.10
2018-08-23T01:13:15.771Z,17.10
2018-08-23T01:15:44.378Z,17.10
2018-08-23T01:18:14.979Z,17.00
2018-08-23T01:20:44.286Z,17.00
2018-08-23T01:23:12.723Z,17.00
2018-08-23T01:25:42.284Z,17.00
2018-08-23T01:28:10.834Z,17.00
2018-08-23T01:30:39.813Z,17.00
2018-08-23T01:33:11.736Z,17.00
2018-08-23T01:35:40.471Z,17.00
2018-08-23T01:38:09.105Z,17.00
2018-08-23T01:40:37.584Z,16.90
2018-08-23T01:43:06.036Z,16.90
2018-08-23T01:45:34.544Z,16.90
2018-08-23T01:48:04.507Z,16.90
2018-08-23T01:50:32.929Z,16.90
2018-08-23T01:53:01.504Z,16.80
2018-08-23T01:55:30.830Z,16.80
2018-08-23T01:57:59.484Z,16.80
2018-08-23T02:00:30.154Z,16.80
2018-08-23T02:02:59.962Z,16.80
2018-08-23T02:05:28.418Z,16.70
2018-08-23T02:07:56.962Z,16.70
2018-08-23T02:10:25.416Z,16.70
2018-08-23T02:12:55.052Z,16.70
2018-08-23T02:15:23.531Z,16.70
2018-08-23T02:17:52.868Z,16.70
2018-08-23T02:20:22.230Z,16.70
2018-08-23T02:22:50.794Z,16.60
2018-08-23T02:25:19.261Z,16.60
2018-08-23T02:27:58.172Z,16.60
2018-08-23T02:30:40.808Z,16.60
2018-08-23T02:33:10.245Z,16.60
2018-08-23T02:35:38.893Z,16.50
2018-08-23T02:38:07.869Z,16.50
2018-08-23T02:40:37.876Z,16.40
2018-08-23T02:43:06.409Z,16.40
2018-08-23T02:45:40.177Z,16.40
2018-08-23T02:48:08.888Z,16.40
2018-08-23T02:50:37.481Z,16.30
2018-08-23T02:53:48.128Z,16.30
2018-08-23T02:56:18.581Z,16.20
2018-08-23T02:58:49.031Z,16.20
2018-08-23T03:01:17.435Z,16.20
2018-08-23T03:04:00.098Z,16.20
2018-08-23T03:06:49.363Z,16.10
2018-08-23T03:09:34.598Z,16.10
2018-08-23T03:12:10.486Z,16.10
2018-08-23T03:14:39.515Z,16.10
2018-08-23T03:17:25.800Z,16.00
2018-08-23T03:19:59.820Z,16.00
2018-08-23T03:22:28.801Z,16.00
2018-08-23T03:24:58.439Z,16.00
2018-08-23T03:27:27.214Z,15.90
2018-08-23T03:29:55.668Z,15.90
2018-08-23T03:32:24.098Z,15.90
2018-08-23T03:34:52.573Z,15.80
2018-08-23T03:37:21.025Z,15.80
2018-08-23T03:39:49.524Z,15.80
2018-08-23T03:42:18.030Z,15.80
2018-08-23T03:44:46.496Z,15.80
2018-08-23T03:47:14.977Z,15.80
2018-08-23T03:49:44.729Z,15.70
2018-08-23T03:52:14.695Z,15.70
2018-08-23T03:54:51.689Z,15.70
2018-08-23T03:57:20.243Z,15.70
2018-08-23T03:59:50.807Z,15.70
2018-08-23T04:02:20.977Z,15.70
2018-08-23T04:04:54.077Z,15.70
2018-08-23T04:07:22.582Z,15.70
2018-08-23T04:09:51.015Z,15.70
2018-08-23T04:12:19.439Z,15.70
2018-08-23T04:14:47.923Z,15.70
2018-08-23T04:17:16.353Z,15.70
2018-08-23T04:19:48.515Z,15.70
2018-08-23T04:22:17.403Z,15.70
2018-08-23T04:24:51.146Z,15.70
2018-08-23T04:27:19.887Z,15.70
2018-08-23T04:29:48.994Z,15.70
2018-08-23T04:32:29.570Z,15.70
2018-08-23T04:35:00.361Z,15.70
2018-08-23T04:37:29.563Z,15.70
2018-08-23T04:40:05.707Z,15.70
2018-08-23T04:42:34.405Z,15.80
2018-08-23T04:45:11.872Z,15.80
2018-08-23T04:47:53.404Z,15.80
2018-08-23T04:50:22.699Z,15.80
2018-08-23T04:52:51.129Z,15.90
2018-08-23T04:55:19.670Z,15.90
2018-08-23T04:57:48.190Z,15.90
2018-08-23T05:00:16.703Z,16.00
2018-08-23T05:02:45.074Z,16.00
2018-08-23T05:05:13.516Z,16.10
2018-08-23T05:07:42.083Z,16.10
2018-08-23T05:10:10.734Z,16.20
2018-08-23T05:12:39.150Z,16.20
2018-08-23T05:15:07.366Z,16.30
2018-08-23T05:17:35.606Z,16.30
2018-08-23T05:20:03.778Z,16.40
2018-08-23T05:22:31.966Z,16.40
2018-08-23T05:25:04.379Z,16.40
2018-08-23T05:27:33.396Z,16.50
2018-08-23T05:30:01.575Z,16.50
2018-08-23T05:32:29.753Z,16.60
2018-08-23T05:34:58.367Z,16.60
2018-08-23T05:37:26.535Z,16.70
2018-08-23T05:39:54.809Z,16.70
2018-08-23T05:42:34.916Z,16.80
2018-08-23T05:45:03.130Z,16.90
2018-08-23T05:47:31.463Z,17.10
2018-08-23T05:49:59.903Z,17.20
2018-08-23T05:52:28.102Z,17.40
2018-08-23T05:54:56.263Z,17.70
2018-08-23T05:57:24.479Z,17.90
2018-08-23T05:59:54.579Z,18.10
2018-08-23T06:02:22.732Z,18.30
2018-08-23T06:04:50.897Z,18.50
2018-08-23T06:07:19.076Z,18.70
2018-08-23T06:09:47.274Z,18.90
2018-08-23T06:12:15.423Z,19.00
2018-08-23T06:14:43.619Z,19.10
2018-08-23T06:17:11.935Z,19.20
2018-08-23T06:19:40.123Z,19.40
2018-08-23T06:22:08.297Z,19.40
2018-08-23T06:24:36.538Z,19.50
2018-08-23T06:27:04.724Z,19.50
2018-08-23T06:29:34.108Z,19.60
2018-08-23T06:32:08.620Z,19.50
2018-08-23T06:34:45.435Z,19.50
2018-08-23T06:37:13.942Z,19.50
2018-08-23T06:39:42.347Z,19.50
2018-08-23T06:42:10.522Z,19.40
2018-08-23T06:44:44.227Z,19.30
2018-08-23T06:47:14.024Z,19.30
2018-08-23T06:49:43.405Z,19.30
2018-08-23T06:52:26.980Z,19.30
2018-08-23T06:54:55.624Z,19.30
2018-08-23T06:57:23.812Z,19.40
2018-08-23T06:59:52.074Z,19.50
2018-08-23T07:02:20.540Z,19.60
2018-08-23T07:04:48.723Z,19.80
2018-08-23T07:07:18.453Z,20.00
2018-08-23T07:09:46.644Z,20.20
2018-08-23T07:12:20.646Z,20.40
2018-08-23T07:14:50.122Z,20.70
2018-08-23T07:17:23.824Z,21.00
2018-08-23T07:19:52.360Z,21.20
2018-08-23T07:22:22.864Z,21.50
2018-08-23T07:24:52.231Z,21.80
2018-08-23T07:27:21.241Z,22.10
2018-08-23T07:29:50.665Z,22.30
2018-08-23T07:32:20.419Z,22.50
2018-08-23T07:35:09.186Z,22.70
2018-08-23T07:37:38.824Z,22.80
2018-08-23T07:40:12.142Z,22.90
2018-08-23T07:42:41.628Z,22.90
2018-08-23T07:45:10.495Z,23.00
2018-08-23T07:47:47.399Z,23.10
2018-08-23T07:50:15.577Z,23.20
2018-08-23T07:52:45.177Z,23.30
2018-08-23T07:55:13.295Z,23.40
2018-08-23T07:57:41.891Z,23.60
2018-08-23T08:00:27.833Z,23.90
2018-08-23T08:02:56.007Z,24.20
2018-08-23T08:05:28.228Z,24.80
2018-08-23T08:07:56.389Z,25.30
2018-08-23T08:10:28.356Z,25.80
2018-08-23T08:12:56.592Z,26.40
2018-08-23T08:15:24.805Z,27.00
2018-08-23T08:17:52.972Z,27.40
2018-08-23T08:20:21.297Z,27.70
2018-08-23T08:22:49.456Z,28.10
2018-08-23T08:25:19.426Z,28.30
2018-08-23T08:27:48.573Z,28.70
2018-08-23T08:30:19.253Z,29.00
2018-08-23T08:32:47.479Z,29.10
2018-08-23T08:35:17.695Z,28.80
2018-08-23T08:37:47.261Z,28.30
2018-08-23T08:40:20.812Z,28.00
2018-08-23T08:42:49.046Z,27.80
2018-08-23T08:45:17.372Z,27.60
2018-08-23T08:47:46.522Z,27.30
2018-08-23T08:50:14.863Z,26.90
2018-08-23T08:52:43.211Z,26.80
2018-08-23T08:55:12.863Z,26.80
2018-08-23T08:57:42.325Z,27.10
2018-08-23T09:00:10.966Z,27.30
2018-08-23T09:02:39.145Z,27.80
2018-08-23T09:05:08.178Z,28.40
2018-08-23T09:07:37.268Z,28.80
2018-08-23T09:10:05.727Z,28.90
2018-08-23T09:12:34.019Z,29.00
2018-08-23T09:15:02.167Z,29.40
2018-08-23T09:17:39.187Z,29.50
2018-08-23T09:20:14.529Z,29.50
2018-08-23T09:22:48.055Z,29.40
2018-08-23T09:25:21.751Z,29.60
2018-08-23T09:27:50.455Z,29.80
2018-08-23T09:30:24.161Z,30.20
2018-08-23T09:32:52.364Z,30.70
2018-08-23T09:35:22.540Z,31.30
2018-08-23T09:37:54.987Z,31.80
2018-08-23T09:40:24.547Z,31.90
2018-08-23T09:42:52.769Z,32.10
2018-08-23T09:45:20.877Z,32.40
2018-08-23T09:47:49.044Z,32.80
2018-08-23T09:50:17.258Z,32.50
2018-08-23T09:52:47.589Z,32.30
2018-08-23T09:55:16.889Z,32.00
2018-08-23T09:57:45.576Z,31.80
2018-08-23T10:00:15.084Z,31.70
2018-08-23T10:02:48.640Z,31.40
2018-08-23T10:05:22.044Z,31.20
2018-08-23T10:07:55.698Z,31.10
2018-08-23T10:10:29.370Z,31.20
2018-08-23T10:13:03.135Z,31.90
2018-08-23T10:15:41.365Z,32.50
2018-08-23T10:18:14.920Z,33.20
2018-08-23T10:20:48.584Z,34.20
2018-08-23T10:23:21.798Z,35.00
2018-08-23T10:25:51.066Z,35.00
2018-08-23T10:28:20.410Z,34.40
2018-08-23T10:30:48.839Z,34.00
2018-08-23T10:33:17.232Z,33.80
2018-08-23T10:35:46.423Z,33.30
2018-08-23T10:38:16.196Z,33.10
2018-08-23T10:40:45.108Z,33.00
2018-08-23T10:43:13.529Z,33.40
2018-08-23T10:45:42.164Z,33.90
2018-08-23T10:48:15.741Z,34.10
2018-08-23T10:50:44.563Z,34.30
2018-08-23T10:53:13.036Z,34.10
2018-08-23T10:55:41.717Z,34.10
2018-08-23T10:58:10.027Z,33.90
2018-08-23T11:00:38.232Z,34.00
2018-08-23T11:03:06.770Z,34.00
2018-08-23T11:05:34.937Z,34.20
2018-08-23T11:08:08.589Z,34.60
2018-08-23T11:10:42.351Z,34.80
2018-08-23T11:13:48.086Z,35.30
2018-08-23T11:16:21.961Z,35.70
2018-08-23T11:23:42.549Z,35.50
2018-08-23T11:26:15.634Z,35.30
2018-08-23T11:28:56.510Z,34.30
2018-08-23T11:31:33.347Z,34.20
2018-08-23T11:34:02.552Z,34.40
2018-08-23T11:36:32.056Z,34.60
2018-08-23T11:39:01.014Z,34.70
2018-08-23T11:41:30.608Z,34.80
2018-08-23T11:52:45.249Z,34.80
2018-08-23T11:55:13.804Z,34.40
2018-08-23T11:57:42.899Z,32.50
2018-08-23T12:00:11.081Z,32.00
2018-08-23T12:02:42.218Z,31.80
2018-08-23T12:05:11.208Z,32.20
2018-08-23T12:07:43.701Z,32.60
2018-08-23T12:10:12.343Z,32.70
2018-08-23T12:12:40.555Z,32.80
2018-08-23T12:15:08.744Z,32.90
2018-08-23T12:17:37.030Z,33.10
2018-08-23T12:20:05.419Z,33.20
2018-08-23T12:22:38.960Z,33.20
2018-08-23T12:25:07.138Z,33.00
2018-08-23T12:27:35.302Z,32.80
2018-08-23T12:32:38.891Z,32.20
2018-08-23T12:35:07.249Z,31.90
2018-08-23T12:37:41.042Z,31.30
2018-08-23T12:40:14.655Z,30.80
2018-08-23T12:42:47.360Z,29.90
2018-08-23T12:45:15.660Z,29.00
2018-08-23T12:47:44.377Z,28.10
2018-08-23T12:50:12.552Z,27.40
2018-08-23T12:52:40.824Z,26.80
2018-08-23T12:55:09.015Z,26.30
2018-08-23T12:57:37.224Z,26.00
2018-08-23T13:00:05.517Z,25.70
2018-08-23T13:02:33.755Z,25.40
2018-08-23T13:05:01.947Z,25.10
2018-08-23T13:07:30.242Z,24.60
2018-08-23T13:09:58.416Z,24.00
2018-08-23T13:12:26.629Z,23.20
2018-08-23T13:14:55.064Z,22.60
2018-08-23T13:17:23.308Z,22.10
2018-08-23T13:19:51.441Z,21.80
2018-08-23T13:22:24.989Z,21.60
2018-08-23T13:24:58.608Z,21.40
2018-08-23T13:27:30.562Z,21.20
2018-08-23T13:29:59.078Z,21.20
2018-08-23T13:32:27.427Z,21.10
2018-08-23T13:34:56.079Z,21.10
2018-08-23T13:37:24.606Z,21.10
2018-08-23T13:39:52.789Z,21.00
2018-08-23T13:42:21.363Z,21.10
2018-08-23T13:44:49.604Z,21.10
2018-08-23T13:47:18.104Z,21.10
2018-08-23T13:49:46.285Z,21.10
2018-08-23T13:52:14.907Z,21.00
2018-08-23T13:54:43.838Z,20.90
2018-08-23T13:57:11.987Z,20.80
2018-08-23T13:59:40.207Z,20.80
2018-08-23T14:02:08.536Z,20.70
2018-08-23T14:04:36.725Z,20.60
2018-08-23T14:07:05.460Z,20.60
2018-08-23T14:09:33.642Z,20.50
2018-08-23T14:12:01.833Z,20.50
2018-08-23T14:14:30.575Z,20.50
2018-08-23T14:16:59.112Z,20.60
2018-08-23T14:19:27.364Z,20.50
2018-08-23T14:21:55.515Z,20.60
2018-08-23T14:24:23.683Z,20.50
2018-08-23T14:26:51.949Z,20.50
2018-08-23T14:29:20.140Z,20.50
2018-08-23T14:31:48.289Z,20.50
2018-08-23T14:34:16.499Z,20.50
2018-08-23T14:36:44.659Z,20.50
2018-08-23T14:39:12.873Z,20.50
2018-08-23T14:41:41.044Z,20.50
2018-08-23T14:44:09.856Z,20.60
2018-08-23T14:46:43.572Z,20.60
2018-08-23T14:49:15.862Z,20.70
2018-08-23T14:51:44.151Z,20.80
2018-08-23T14:54:17.775Z,21.00
2018-08-23T14:57:49.271Z,21.10
2018-08-23T15:00:17.660Z,21.20
2018-08-23T15:02:45.901Z,21.30
2018-08-23T15:05:14.119Z,21.50
2018-08-23T15:07:42.385Z,21.60
2018-08-23T15:10:10.503Z,21.80
2018-08-23T15:12:38.780Z,21.90
2018-08-23T15:15:08.613Z,22.00
2018-08-23T15:17:36.800Z,22.20
2018-08-23T15:20:05.355Z,22.40
2018-08-23T15:22:33.519Z,22.60
2018-08-23T15:25:01.677Z,22.80
2018-08-23T15:27:32.633Z,23.00
2018-08-23T15:30:01.571Z,23.20
2018-08-23T15:32:29.819Z,23.30
2018-08-23T15:34:58.015Z,23.60
2018-08-23T15:37:32.213Z,23.90
2018-08-23T15:40:00.443Z,24.10
2018-08-23T15:42:28.649Z,24.40
2018-08-23T15:44:56.830Z,24.70
2018-08-23T15:47:25.061Z,25.00
2018-08-23T15:49:53.246Z,25.20
2018-08-23T15:52:21.446Z,25.40
2018-08-23T15:54:49.633Z,25.40
2018-08-23T15:57:17.813Z,25.40
2018-08-23T15:59:45.986Z,25.40
2018-08-23T16:02:14.151Z,25.30
2018-08-23T16:04:42.376Z,25.20
2018-08-23T16:07:10.572Z,25.00
2018-08-23T16:09:38.766Z,24.90
2018-08-23T16:12:06.952Z,24.80
2018-08-23T16:14:35.149Z,24.80
2018-08-23T16:17:08.741Z,24.90
2018-08-23T16:19:42.192Z,25.00
2018-08-23T16:22:10.544Z,25.10
2018-08-23T16:24:38.735Z,25.50
2018-08-23T16:27:06.999Z,25.80
2018-08-23T16:29:35.189Z,26.40
2018-08-23T16:32:03.441Z,27.00
2018-08-23T16:34:31.656Z,27.40
2018-08-23T16:36:59.850Z,27.50
2018-08-23T16:39:28.051Z,27.40
2018-08-23T16:41:56.305Z,27.10
2018-08-23T16:44:24.556Z,26.90
2018-08-23T16:46:52.774Z,26.60
2018-08-23T16:49:21.073Z,26.40
2018-08-23T16:51:49.271Z,26.20
2018-08-23T16:54:17.526Z,26.00
2018-08-23T16:56:45.701Z,25.90
2018-08-23T16:59:13.955Z,25.80
2018-08-23T17:01:42.229Z,25.60
2018-08-23T17:04:10.482Z,25.50
2018-08-23T17:06:38.850Z,25.40
2018-08-23T17:09:08.331Z,25.30
2018-08-23T17:11:36.595Z,25.20
2018-08-23T17:14:04.801Z,25.00
2018-08-23T17:16:38.514Z,24.90
2018-08-23T17:19:06.777Z,24.80
2018-08-23T17:21:34.957Z,24.70
2018-08-23T17:24:03.518Z,24.70
2018-08-23T17:26:31.682Z,24.50
2018-08-23T17:28:59.936Z,24.40
2018-08-23T17:31:28.099Z,24.20
2018-08-23T17:33:56.292Z,23.90
2018-08-23T17:36:24.828Z,23.70
2018-08-23T17:38:53.102Z,23.50
2018-08-23T17:41:21.398Z,23.30
2018-08-23T17:43:49.599Z,23.10
2018-08-23T17:46:17.944Z,22.90
2018-08-23T17:48:46.200Z,22.70
2018-08-23T17:51:14.495Z,22.60
2018-08-23T17:53:42.733Z,22.50
2018-08-23T17:56:10.919Z,22.30
2018-08-23T17:58:39.095Z,22.10
2018-08-23T18:01:07.365Z,22.00
2018-08-23T18:03:35.882Z,21.80
2018-08-23T18:06:04.090Z,21.70
2018-08-23T18:08:32.253Z,21.60
2018-08-23T18:11:00.441Z,21.50
2018-08-23T18:13:28.660Z,21.30
2018-08-23T18:16:02.104Z,21.10
2018-08-23T18:18:30.353Z,21.00
2018-08-23T18:20:58.551Z,20.80
2018-08-23T18:23:26.858Z,20.60
2018-08-23T18:25:55.045Z,20.50
2018-08-23T18:28:23.783Z,20.40
2018-08-23T18:30:52.484Z,20.30
2018-08-23T18:33:20.680Z,20.30
2018-08-23T18:35:48.995Z,20.20
2018-08-23T18:38:17.176Z,20.10
2018-08-23T18:40:45.388Z,20.00
2018-08-23T18:43:13.576Z,19.90
2018-08-23T18:45:41.782Z,19.90
2018-08-23T18:48:09.980Z,19.80
2018-08-23T18:50:38.193Z,19.70
2018-08-23T18:53:06.675Z,19.70
2018-08-23T18:55:34.855Z,19.60
2018-08-23T18:58:03.023Z,19.50
2018-08-23T19:00:31.187Z,19.50
2018-08-23T19:02:59.356Z,19.40
2018-08-23T19:05:27.532Z,19.40
2018-08-23T19:07:55.737Z,19.40
2018-08-23T19:10:24.196Z,19.30
2018-08-23T19:12:52.393Z,19.20
2018-08-23T19:15:25.716Z,19.20
2018-08-23T19:17:53.904Z,19.20
2018-08-23T19:20:22.056Z,19.20
2018-08-23T19:22:50.349Z,19.20
2018-08-23T19:25:18.528Z,19.20
2018-08-23T19:27:46.692Z,19.20
2018-08-23T19:30:14.916Z,19.20
2018-08-23T19:32:43.081Z,19.20
2018-08-23T19:35:11.537Z,19.10
2018-08-23T19:37:39.701Z,19.00
2018-08-23T19:40:07.874Z,19.00
2018-08-23T19:42:36.106Z,19.00
2018-08-23T19:45:04.360Z,19.00
2018-08-23T19:47:38.079Z,19.00
2018-08-23T19:50:11.114Z,19.00
2018-08-23T19:52:39.291Z,19.00
2018-08-23T19:55:08.819Z,19.00
2018-08-23T19:57:37.064Z,19.10
2018-08-23T20:00:06.696Z,19.10
2018-08-23T20:02:35.015Z,19.10
2018-08-23T20:05:03.178Z,19.20
2018-08-23T20:07:31.368Z,19.20
2018-08-23T20:09:59.527Z,19.20
2018-08-23T20:12:27.773Z,19.20
2018-08-23T20:14:56.034Z,19.20
2018-08-23T20:17:24.195Z,19.20
2018-08-23T20:19:52.408Z,19.20
2018-08-23T20:22:20.709Z,19.20
2018-08-23T20:24:48.991Z,19.20
2018-08-23T20:27:17.152Z,19.30
2018-08-23T20:29:45.343Z,19.30
2018-08-23T20:32:13.556Z,19.20
2018-08-23T20:34:41.725Z,19.20
2018-08-23T20:37:10.051Z,19.30
2018-08-23T20:39:38.234Z,19.30
2018-08-23T20:42:06.411Z,19.20
2018-08-23T20:44:34.576Z,19.30
2018-08-23T20:47:02.863Z,19.30
2018-08-23T20:49:30.985Z,19.30
2018-08-23T20:51:59.136Z,19.30
2018-08-23T20:54:27.327Z,19.30
2018-08-23T20:56:55.575Z,19.30
2018-08-23T20:59:23.752Z,19.30
2018-08-23T21:01:51.911Z,19.30
2018-08-23T21:04:20.133Z,19.40
2018-08-23T21:06:48.320Z,19.40
2018-08-23T21:09:16.487Z,19.50
2018-08-23T21:11:44.669Z,19.50
2018-08-23T21:14:12.856Z,19.50
2018-08-23T21:16:41.027Z,19.50
2018-08-23T21:19:09.325Z,19.50
2018-08-23T21:21:37.689Z,19.60
2018-08-23T21:24:05.936Z,19.60
2018-08-23T21:26:34.091Z,19.60
2018-08-23T21:29:02.250Z,19.60
2018-08-23T21:31:30.445Z,19.70
2018-08-23T21:33:58.598Z,19.80
2018-08-23T21:36:26.768Z,19.80
2018-08-23T21:38:55.030Z,19.70
2018-08-23T21:41:23.180Z,19.70
2018-08-23T21:43:51.363Z,19.50
2018-08-23T21:46:19.531Z,19.40
2018-08-23T21:48:47.707Z,19.20
2018-08-23T21:51:15.892Z,19.20
2018-08-23T21:53:44.116Z,19.00
2018-08-23T21:56:12.244Z,18.90
2018-08-23T21:58:40.421Z,18.90
2018-08-23T22:01:09.654Z,18.80
2018-08-23T22:03:38.275Z,18.80
2018-08-23T22:06:06.431Z,18.70
2018-08-23T22:08:35.032Z,18.70
2018-08-23T22:11:03.402Z,18.70
2018-08-23T22:13:31.828Z,18.60
2018-08-23T22:15:59.985Z,18.60
2018-08-23T22:18:28.592Z,18.60
2018-08-23T22:20:56.795Z,18.60
2018-08-23T22:23:25.020Z,18.70
2018-08-23T22:25:53.193Z,18.70
2018-08-23T22:28:21.381Z,18.70
2018-08-23T22:30:49.535Z,18.70
2018-08-23T22:33:17.716Z,18.70
2018-08-23T22:35:45.887Z,18.70
2018-08-23T22:38:14.196Z,18.70
2018-08-23T22:40:42.421Z,18.70
2018-08-23T22:43:10.610Z,18.80
2018-08-23T22:45:38.791Z,18.80
2018-08-23T22:48:07.008Z,18.80
2018-08-23T22:50:35.175Z,18.80
2018-08-23T22:53:03.339Z,18.80
2018-08-23T22:55:31.491Z,18.80
2018-08-23T22:57:59.696Z,18.70
2018-08-23T23:00:33.185Z,18.80
2018-08-23T23:03:01.375Z,18.70
2018-08-23T23:05:29.528Z,18.70
2018-08-23T23:08:01.969Z,18.60
2018-08-23T23:10:30.131Z,18.60
2018-08-23T23:12:58.326Z,18.60
2018-08-23T23:15:34.239Z,18.60
2018-08-23T23:18:02.506Z,18.50
2018-08-23T23:20:30.689Z,18.50
2018-08-23T23:22:58.887Z,18.40
2018-08-23T23:25:27.105Z,18.30
2018-08-23T23:27:55.267Z,18.20
2018-08-23T23:30:23.435Z,18.10
2018-08-23T23:32:51.617Z,18.10
2018-08-23T23:35:19.774Z,18.00
2018-08-23T23:37:47.955Z,18.00
2018-08-23T23:40:16.163Z,17.90
2018-08-23T23:42:44.352Z,17.90
2018-08-23T23:45:12.520Z,18.00
2018-08-23T23:47:40.706Z,18.00
2018-08-23T23:50:08.872Z,18.00
2018-08-23T23:52:37.018Z,18.00
2018-08-23T23:55:05.212Z,18.00
2018-08-23T23:57:33.444Z,18.00
